Terminal Aerodrome Forecast
Issued by NWS

Home | Current Version | Previous Version | Graphics & Text | Print | Product List | Glossary On
Versions: 1 2 3 4 5 6 7 8 9 10 11 12 13 14 15 16 17 18 19 20 21 22 23 24 25 26
405
FTUS43 KTOP 251014 AAB
TAFMHK
TAF AMD
KMHK 251014Z 2510/2606 36011KT 3SM -RA BR OVC011
     FM251500 36011KT P6SM OVC014=

USA.gov is the U.S. government's official web portal to all federal, state and local government web resources and services.